Fantasia — ICJY — position and weather

sailwx.info

Track history (hours):
 
Tides and Currents Weather Stations Pressure Air Temp Water Temp Dewpoint Dewpoint Depression Visibility Wind Speed Wind Dir Waves Ship Positions

Fantasia

Last reported at 2017-Mar-22 17:13 UTC. Time now 2017-Mar-27 12:44 UTC.
Position N 38°51' W 030°25'.

Length 183 m; draft 10.5 m.

Type: Tanker. MMSI: 247279600.

Date/timePositionNaut miles runAvg speedWind from/ knotsBaromVisibWave heightAir tempDewpointWater temp
2017-Mar-22 17:13N 38°51' W 030°25'1014.2
2017-Mar-22 16:32N 38°55' W 030°14'1413.9
2017-Mar-22 15:33N 39°01' W 029°58'1413.9
2017-Mar-22 14:33N 39°08' W 029°42'1414.4
2017-Mar-22 13:33N 39°15' W 029°26'1414.3
2017-Mar-22 12:33N 39°22' W 029°10'1414.4
2017-Mar-22 11:33N 39°30' W 028°54'1414.3
2017-Mar-22 10:33N 39°37' W 028°38'1414.4
2017-Mar-22 09:33N 39°44' W 028°22'1514.8
2017-Mar-22 08:31N 39°52' W 028°05'  
2017-Mar-18 20:33N 48°53' W 006°16'1811.9
2017-Mar-18 19:04N 49°01' W 005°53'8512.6
2017-Mar-18 12:19N 49°39' W 003°56'1112.7
2017-Mar-18 11:28N 49°44' W 003°40'1112.2
2017-Mar-18 10:34N 49°48' W 003°25'1211.6
2017-Mar-18 09:33N 49°54' W 003°09'1111.4
2017-Mar-18 08:33N 49°58' W 002°53'1211.7
2017-Mar-18 07:32N 50°02' W 002°35'2612.3
2017-Mar-18 05:26N 50°09' W 001°57'1213.3
2017-Mar-18 04:34N 50°12' W 001°39'1312.7
2017-Mar-18 03:34N 50°16' W 001°20'38 9.4
2017-Mar-17 23:33N 50°26' W 000°24'9 8.9
2017-Mar-17 22:31N 50°29' W 000°10'1010.5
2017-Mar-17 21:33N 50°32' E 000°05'1212.4
2017-Mar-17 20:33N 50°35' E 000°24'1313.2
2017-Mar-17 19:33N 50°40' E 000°43'1413.7
2017-Mar-17 18:33N 50°48' E 001°01'1313.0
2017-Mar-17 17:33N 50°55' E 001°18'1211.9
2017-Mar-17 16:33N 51°04' E 001°30'1010.4
2017-Mar-17 15:34N 51°11' E 001°42'1211.6
2017-Mar-17 14:34N 51°21' E 001°52'1413.6
2017-Mar-17 13:33N 51°33' E 002°04'44513.4
2017-Mar-16 04:16N 57°40' E 009°18'912.2
2017-Mar-16 03:31N 57°44' E 009°34'1111.7
2017-Mar-16 02:34N 57°42' E 009°55'1311.3
2017-Mar-16 01:22N 57°47' E 010°18'1210.3
2017-Mar-16 00:14N 57°50' E 010°39'6 9.2
2017-Mar-15 23:32N 57°46' E 010°49'7 7.2
2017-Mar-15 22:33N 57°42' E 010°38'0 0.1
2017-Mar-15 20:32N 57°42' E 010°38'0 0.0
2017-Mar-15 19:11N 57°42' E 010°38'0 0.0
2017-Mar-15 18:20N 57°42' E 010°38'0 0.0
2017-Mar-15 17:29N 57°42' E 010°38'0 0.0
2017-Mar-15 16:29N 57°42' E 010°38'0 0.0
2017-Mar-15 15:32N 57°42' E 010°38'0 0.0
2017-Mar-15 14:11N 57°42' E 010°38'0 0.0
2017-Mar-15 11:17N 57°42' E 010°38'0 0.0
2017-Mar-15 10:32N 57°42' E 010°38'0 0.0
2017-Mar-15 09:32N 57°42' E 010°38'0 0.0
2017-Mar-15 08:33N 57°42' E 010°38'3 3.5
2017-Mar-15 07:33N 57°43' E 010°45'7 7.0
2017-Mar-15 06:31N 57°42' E 010°58'1010.4
2017-Mar-15 05:32N 57°35' E 011°12'1010.6
2017-Mar-15 04:34N 57°28' E 011°26'1110.8
2017-Mar-15 03:33N 57°18' E 011°33'1111.0
2017-Mar-15 02:32N 57°07' E 011°41'11810.8
2017-Mar-14 15:33N 55°11' E 011°04'1212.3
2017-Mar-14 14:33N 54°59' E 010°59'1212.0
2017-Mar-14 13:33N 54°48' E 010°50'1211.7
2017-Mar-14 12:33N 54°37' E 010°58'1312.6
2017-Mar-14 11:33N 54°34' E 011°19'1312.8
2017-Mar-14 10:33N 54°28' E 011°39'1212.2
2017-Mar-14 09:33N 54°27' E 011°59'1010.2
2017-Mar-14 08:34N 54°32' E 012°14'10 9.8
2017-Mar-14 07:30N 54°40' E 012°26'1213.0
2017-Mar-14 06:33N 54°47' E 012°44'1312.8
2017-Mar-14 05:33N 54°52' E 013°04'1413.6
2017-Mar-14 04:33N 54°56' E 013°27'1413.3
2017-Mar-14 03:32N 55°01' E 013°49'1212.6
2017-Mar-14 02:33N 55°07' E 014°08'1413.6
2017-Mar-14 01:33N 55°17' E 014°23'1313.3
2017-Mar-14 00:33N 55°27' E 014°38'1313.2
2017-Mar-13 23:33N 55°34' E 014°58'1313.2
2017-Mar-13 22:33N 55°39' E 015°20'1313.5
2017-Mar-13 21:33N 55°43' E 015°43'1313.5
2017-Mar-13 20:33N 55°46' E 016°06'1413.6
2017-Mar-13 19:33N 55°49' E 016°29'1313.4
2017-Mar-13 18:33N 55°52' E 016°53'1313.4
2017-Mar-13 17:33N 55°56' E 017°16'1313.3
2017-Mar-13 16:33N 55°58' E 017°39'  
Track history (hours):
 
Tides and Currents Weather Stations Pressure Air Temp Water Temp Dewpoint Dewpoint Depression Visibility Wind Speed Wind Dir Waves Ship Positions

Fantasia

Last reported at 2017-Mar-22 17:13 UTC. Time now 2017-Mar-27 12:44 UTC.
Position N 38°51' W 030°25'.

Length 183 m; draft 10.5 m.

Type: Tanker. MMSI: 247279600.

Date/timePositionNaut miles runAvg speedWind from/ knotsBaromVisibWave heightAir tempDewpointWater temp
2017-Mar-22 17:13N 38°51' W 030°25'1014.2
2017-Mar-22 16:32N 38°55' W 030°14'1413.9
2017-Mar-22 15:33N 39°01' W 029°58'1413.9
2017-Mar-22 14:33N 39°08' W 029°42'1414.4
2017-Mar-22 13:33N 39°15' W 029°26'1414.3
2017-Mar-22 12:33N 39°22' W 029°10'1414.4
2017-Mar-22 11:33N 39°30' W 028°54'1414.3
2017-Mar-22 10:33N 39°37' W 028°38'1414.4
2017-Mar-22 09:33N 39°44' W 028°22'1514.8
2017-Mar-22 08:31N 39°52' W 028°05'  
2017-Mar-18 20:33N 48°53' W 006°16'1811.9
2017-Mar-18 19:04N 49°01' W 005°53'8512.6
2017-Mar-18 12:19N 49°39' W 003°56'1112.7
2017-Mar-18 11:28N 49°44' W 003°40'1112.2
2017-Mar-18 10:34N 49°48' W 003°25'1211.6
2017-Mar-18 09:33N 49°54' W 003°09'1111.4
2017-Mar-18 08:33N 49°58' W 002°53'1211.7
2017-Mar-18 07:32N 50°02' W 002°35'2612.3
2017-Mar-18 05:26N 50°09' W 001°57'1213.3
2017-Mar-18 04:34N 50°12' W 001°39'1312.7
2017-Mar-18 03:34N 50°16' W 001°20'38 9.4
2017-Mar-17 23:33N 50°26' W 000°24'9 8.9
2017-Mar-17 22:31N 50°29' W 000°10'1010.5
2017-Mar-17 21:33N 50°32' E 000°05'1212.4
2017-Mar-17 20:33N 50°35' E 000°24'1313.2
2017-Mar-17 19:33N 50°40' E 000°43'1413.7
2017-Mar-17 18:33N 50°48' E 001°01'1313.0
2017-Mar-17 17:33N 50°55' E 001°18'1211.9
2017-Mar-17 16:33N 51°04' E 001°30'1010.4
2017-Mar-17 15:34N 51°11' E 001°42'1211.6
2017-Mar-17 14:34N 51°21' E 001°52'1413.6
2017-Mar-17 13:33N 51°33' E 002°04'44513.4
2017-Mar-16 04:16N 57°40' E 009°18'912.2
2017-Mar-16 03:31N 57°44' E 009°34'1111.7
2017-Mar-16 02:34N 57°42' E 009°55'1311.3
2017-Mar-16 01:22N 57°47' E 010°18'1210.3
2017-Mar-16 00:14N 57°50' E 010°39'6 9.2
2017-Mar-15 23:32N 57°46' E 010°49'7 7.2
2017-Mar-15 22:33N 57°42' E 010°38'0 0.1
2017-Mar-15 20:32N 57°42' E 010°38'0 0.0
2017-Mar-15 19:11N 57°42' E 010°38'0 0.0
2017-Mar-15 18:20N 57°42' E 010°38'0 0.0
2017-Mar-15 17:29N 57°42' E 010°38'0 0.0
2017-Mar-15 16:29N 57°42' E 010°38'0 0.0
2017-Mar-15 15:32N 57°42' E 010°38'0 0.0
2017-Mar-15 14:11N 57°42' E 010°38'0 0.0
2017-Mar-15 11:17N 57°42' E 010°38'0 0.0
2017-Mar-15 10:32N 57°42' E 010°38'0 0.0
2017-Mar-15 09:32N 57°42' E 010°38'0 0.0
2017-Mar-15 08:33N 57°42' E 010°38'3 3.5
2017-Mar-15 07:33N 57°43' E 010°45'7 7.0
2017-Mar-15 06:31N 57°42' E 010°58'1010.4
2017-Mar-15 05:32N 57°35' E 011°12'1010.6
2017-Mar-15 04:34N 57°28' E 011°26'1110.8
2017-Mar-15 03:33N 57°18' E 011°33'1111.0
2017-Mar-15 02:32N 57°07' E 011°41'11810.8
2017-Mar-14 15:33N 55°11' E 011°04'1212.3
2017-Mar-14 14:33N 54°59' E 010°59'1212.0
2017-Mar-14 13:33N 54°48' E 010°50'1211.7
2017-Mar-14 12:33N 54°37' E 010°58'1312.6
2017-Mar-14 11:33N 54°34' E 011°19'1312.8
2017-Mar-14 10:33N 54°28' E 011°39'1212.2
2017-Mar-14 09:33N 54°27' E 011°59'1010.2
2017-Mar-14 08:34N 54°32' E 012°14'10 9.8
2017-Mar-14 07:30N 54°40' E 012°26'1213.0
2017-Mar-14 06:33N 54°47' E 012°44'1312.8
2017-Mar-14 05:33N 54°52' E 013°04'1413.6
2017-Mar-14 04:33N 54°56' E 013°27'1413.3
2017-Mar-14 03:32N 55°01' E 013°49'1212.6
2017-Mar-14 02:33N 55°07' E 014°08'1413.6
2017-Mar-14 01:33N 55°17' E 014°23'1313.3
2017-Mar-14 00:33N 55°27' E 014°38'1313.2
2017-Mar-13 23:33N 55°34' E 014°58'1313.2
2017-Mar-13 22:33N 55°39' E 015°20'1313.5
2017-Mar-13 21:33N 55°43' E 015°43'1313.5
2017-Mar-13 20:33N 55°46' E 016°06'1413.6
2017-Mar-13 19:33N 55°49' E 016°29'1313.4
2017-Mar-13 18:33N 55°52' E 016°53'1313.4
2017-Mar-13 17:33N 55°56' E 017°16'1313.3
2017-Mar-13 16:33N 55°58' E 017°39'  

Dump ship's entire track history